createdAt,value
2018-09-26T00:00:45.585Z,6.85
2018-09-26T00:01:54.489Z,6.85
2018-09-26T00:03:03.127Z,6.82
2018-09-26T00:04:11.768Z,6.92
2018-09-26T00:05:20.407Z,6.89
2018-09-26T00:06:29.051Z,6.95
2018-09-26T00:07:37.686Z,6.82
2018-09-26T00:08:46.587Z,7
2018-09-26T00:09:55.488Z,6.93
2018-09-26T00:11:04.125Z,6.86
2018-09-26T00:12:13.300Z,6.89
2018-09-26T00:13:21.939Z,6.89
2018-09-26T00:14:30.844Z,6.97
2018-09-26T00:15:39.476Z,6.92
2018-09-26T00:16:48.648Z,7
2018-09-26T00:17:57.552Z,7.01
2018-09-26T00:19:06.189Z,6.9
2018-09-26T00:20:14.823Z,6.89
2018-09-26T00:21:23.464Z,6.92
2018-09-26T00:22:32.100Z,6.92
2018-09-26T00:23:41.952Z,6.95
2018-09-26T00:24:50.588Z,6.93
2018-09-26T00:25:59.493Z,6.89
2018-09-26T00:27:08.133Z,6.82
2018-09-26T00:28:16.770Z,6.9
2018-09-26T00:29:25.406Z,6.9
2018-09-26T00:30:34.049Z,6.9
2018-09-26T00:31:42.745Z,6.87
2018-09-26T00:32:51.589Z,6.9
2018-09-26T00:34:00.226Z,6.89
2018-09-26T00:35:08.869Z,6.9
2018-09-26T00:36:17.622Z,6.9
2018-09-26T00:37:26.635Z,6.93
2018-09-26T00:38:35.261Z,7
2018-09-26T00:39:43.902Z,6.97
2018-09-26T00:40:52.540Z,7.01
2018-09-26T00:42:01.184Z,7.01
2018-09-26T00:43:10.078Z,7.05
2018-09-26T00:44:18.719Z,7.13
2018-09-26T00:45:27.616Z,7.08
2018-09-26T00:46:36.269Z,7.05
2018-09-26T00:47:44.913Z,7.18
2018-09-26T00:48:53.548Z,7.21
2018-09-26T00:50:02.188Z,7.08
2018-09-26T00:51:10.827Z,7.18
2018-09-26T00:52:19.470Z,7.19
2018-09-26T00:53:28.363Z,7.18
2018-09-26T00:54:37.002Z,7.15
2018-09-26T00:55:45.641Z,7.19
2018-09-26T00:56:54.285Z,7.15
2018-09-26T00:58:02.916Z,7.19
2018-09-26T00:59:11.826Z,7.29
2018-09-26T01:00:20.462Z,7.21
2018-09-26T01:01:29.106Z,7.21
2018-09-26T01:02:37.741Z,7.31
2018-09-26T01:03:46.379Z,7.33
2018-09-26T01:04:55.279Z,7.33
2018-09-26T01:06:03.915Z,7.43
2018-09-26T01:07:12.559Z,7.47
2018-09-26T01:08:21.459Z,7.46
2018-09-26T01:09:30.096Z,7.44
2018-09-26T01:10:38.731Z,7.47
2018-09-26T01:11:47.375Z,7.5
2018-09-26T01:12:56.277Z,7.58
2018-09-26T01:14:04.916Z,7.58
2018-09-26T01:15:13.552Z,7.59
2018-09-26T01:16:22.193Z,7.69
2018-09-26T01:17:30.829Z,7.66
2018-09-26T01:18:39.470Z,7.7
2018-09-26T01:19:48.105Z,7.66
2018-09-26T01:20:56.746Z,7.72
2018-09-26T01:22:05.386Z,7.72
2018-09-26T01:23:14.293Z,7.67
2018-09-26T01:24:23.192Z,7.62
2018-09-26T01:25:31.826Z,7.7
2018-09-26T01:26:40.734Z,7.56
2018-09-26T01:27:49.638Z,7.64
2018-09-26T01:28:58.286Z,7.56
2018-09-26T01:30:06.915Z,7.59
2018-09-26T01:31:15.820Z,7.61
2018-09-26T01:32:24.455Z,7.58
2018-09-26T01:33:33.104Z,7.66
2018-09-26T01:34:41.735Z,7.64
2018-09-26T01:35:50.374Z,7.61
2018-09-26T01:36:59.012Z,7.58
2018-09-26T01:38:07.660Z,7.59
2018-09-26T01:39:16.564Z,7.58
2018-09-26T01:40:25.202Z,7.48
2018-09-26T01:41:33.907Z,7.41
2018-09-26T01:42:42.474Z,7.44
2018-09-26T01:43:51.121Z,7.46
2018-09-26T01:44:59.756Z,7.47
2018-09-26T01:46:08.666Z,7.41
2018-09-26T01:47:17.295Z,7.43
2018-09-26T01:48:25.943Z,7.46
2018-09-26T01:49:34.579Z,7.41
2018-09-26T01:50:43.486Z,7.46
2018-09-26T01:51:52.377Z,7.39
2018-09-26T01:53:01.028Z,7.39
2018-09-26T01:54:09.661Z,7.36
2018-09-26T01:55:18.303Z,7.37
2018-09-26T01:56:27.199Z,7.36
2018-09-26T01:57:35.844Z,7.41
2018-09-26T01:58:44.485Z,7.33
2018-09-26T01:59:53.127Z,7.39
2018-09-26T02:01:01.768Z,7.39
2018-09-26T02:02:10.398Z,7.43
2018-09-26T02:03:19.040Z,7.33
2018-09-26T02:04:27.706Z,7.29
2018-09-26T02:05:36.583Z,7.29
2018-09-26T02:06:45.212Z,7.31
2018-09-26T02:07:53.854Z,7.26
2018-09-26T02:09:02.486Z,7.23
2018-09-26T02:10:11.129Z,7.21
2018-09-26T02:11:19.763Z,7.21
2018-09-26T02:12:28.404Z,7.25
2018-09-26T02:13:37.305Z,7.18
2018-09-26T02:14:46.218Z,7.21
2018-09-26T02:15:54.853Z,7.18
2018-09-26T02:17:03.487Z,7.21
2018-09-26T02:18:12.124Z,7.21
2018-09-26T02:19:20.760Z,7.18
2018-09-26T02:20:29.410Z,7.13
2018-09-26T02:21:38.307Z,7.13
2018-09-26T02:22:47.215Z,7.08
2018-09-26T02:23:56.106Z,7.15
2018-09-26T02:25:04.752Z,7.19
2018-09-26T02:26:13.648Z,7.11
2018-09-26T02:27:22.286Z,7.07
2018-09-26T02:28:30.923Z,7.21
2018-09-26T02:29:39.568Z,7.15
2018-09-26T02:30:48.468Z,7.21
2018-09-26T02:31:57.110Z,7.21
2018-09-26T02:33:06.019Z,7.15
2018-09-26T02:34:14.928Z,7.05
2018-09-26T02:35:23.574Z,7.05
2018-09-26T02:36:32.221Z,7.08
2018-09-26T02:37:40.861Z,7.01
2018-09-26T02:38:49.499Z,7.04
2018-09-26T02:39:58.425Z,6.9
2018-09-26T02:41:07.065Z,6.89
2018-09-26T02:42:15.707Z,6.9
2018-09-26T02:43:24.613Z,6.93
2018-09-26T02:44:33.256Z,6.87
2018-09-26T02:45:41.896Z,6.95
2018-09-26T02:46:50.537Z,6.85
2018-09-26T02:47:59.167Z,6.82
2018-09-26T02:49:07.810Z,6.86
2018-09-26T02:50:16.449Z,6.83
2018-09-26T02:51:25.100Z,6.74
2018-09-26T02:52:33.735Z,6.74
2018-09-26T02:53:42.373Z,6.74
2018-09-26T02:54:51.324Z,6.72
2018-09-26T02:55:59.967Z,6.74
2018-09-26T02:57:08.605Z,6.8
2018-09-26T02:58:17.550Z,6.75
2018-09-26T02:59:26.183Z,6.82
2018-09-26T03:00:34.817Z,6.77
2018-09-26T03:01:43.464Z,6.72
2018-09-26T03:02:52.105Z,6.78
2018-09-26T03:04:01.001Z,6.86
2018-09-26T03:05:09.638Z,6.95
2018-09-26T03:06:18.282Z,6.93
2018-09-26T03:07:26.921Z,6.93
2018-09-26T03:08:35.556Z,6.86
2018-09-26T03:09:44.191Z,6.95
2018-09-26T03:10:52.941Z,7
2018-09-26T03:12:01.473Z,7.03
2018-09-26T03:13:10.119Z,6.93
2018-09-26T03:14:19.288Z,6.86
2018-09-26T03:15:28.182Z,6.89
2018-09-26T03:16:36.829Z,7
2018-09-26T03:17:45.531Z,6.93
2018-09-26T03:18:54.648Z,6.96
2018-09-26T03:20:03.544Z,6.9
2018-09-26T03:21:12.448Z,6.87
2018-09-26T03:22:21.087Z,6.89
2018-09-26T03:23:29.730Z,6.9
2018-09-26T03:24:38.890Z,6.92
2018-09-26T03:25:47.535Z,6.89
2018-09-26T03:26:56.169Z,6.93
2018-09-26T03:28:04.834Z,6.78
2018-09-26T03:29:13.472Z,6.82
2018-09-26T03:30:22.371Z,6.82
2018-09-26T03:31:31.005Z,6.75
2018-09-26T03:32:39.644Z,6.67
2018-09-26T03:33:48.704Z,6.68
2018-09-26T03:34:57.185Z,6.71
2018-09-26T03:36:05.840Z,6.68
2018-09-26T03:37:14.743Z,6.64
2018-09-26T03:38:23.394Z,6.59
2018-09-26T03:39:32.030Z,6.59
2018-09-26T03:40:40.672Z,6.56
2018-09-26T03:41:49.300Z,6.64
2018-09-26T03:42:57.948Z,6.6
2018-09-26T03:44:06.583Z,6.56
2018-09-26T03:45:15.224Z,6.54
2018-09-26T03:46:23.853Z,6.71
2018-09-26T03:47:32.771Z,6.68
2018-09-26T03:48:41.404Z,6.67
2018-09-26T03:49:50.309Z,6.7
2018-09-26T03:50:58.952Z,6.74
2018-09-26T03:52:07.838Z,6.67
2018-09-26T03:53:16.482Z,6.74
2018-09-26T03:54:25.116Z,6.85
2018-09-26T03:55:33.764Z,6.77
2018-09-26T03:56:42.396Z,6.77
2018-09-26T03:57:51.042Z,6.82
2018-09-26T03:58:59.952Z,6.85
2018-09-26T04:00:08.595Z,6.77
2018-09-26T04:01:17.226Z,6.85
2018-09-26T04:02:25.866Z,6.85
2018-09-26T04:03:34.506Z,6.77
2018-09-26T04:04:43.174Z,6.82
2018-09-26T04:05:51.790Z,6.82
2018-09-26T04:07:00.685Z,6.86
2018-09-26T04:08:09.597Z,6.77
2018-09-26T04:09:18.506Z,6.9
2018-09-26T04:10:27.157Z,6.77
2018-09-26T04:11:35.791Z,6.95
2018-09-26T04:12:44.581Z,6.77
2018-09-26T04:13:53.062Z,6.78
2018-09-26T04:15:01.980Z,6.77
2018-09-26T04:16:10.623Z,6.77
2018-09-26T04:17:19.535Z,6.89
2018-09-26T04:18:28.161Z,6.86
2018-09-26T04:19:36.811Z,6.78
2018-09-26T04:20:45.446Z,6.86
2018-09-26T04:21:54.085Z,6.78
2018-09-26T04:23:02.735Z,6.8
2018-09-26T04:24:11.631Z,6.77
2018-09-26T04:25:20.269Z,6.86
2018-09-26T04:26:28.963Z,6.83
2018-09-26T04:27:38.073Z,6.77
2018-09-26T04:28:47.105Z,6.83
2018-09-26T04:29:56.352Z,6.77
2018-09-26T04:31:05.298Z,6.83
2018-09-26T04:32:14.204Z,6.82
2018-09-26T04:33:23.023Z,6.86
2018-09-26T04:34:31.482Z,6.82
2018-09-26T04:35:40.665Z,6.77
2018-09-26T04:36:49.827Z,6.77
2018-09-26T04:37:58.466Z,6.86
2018-09-26T04:39:07.104Z,6.87
2018-09-26T04:40:16.006Z,6.92
2018-09-26T04:41:24.639Z,6.95
2018-09-26T04:42:33.276Z,6.87
2018-09-26T04:43:41.917Z,6.82
2018-09-26T04:44:50.567Z,6.8
2018-09-26T04:45:59.213Z,6.87
2018-09-26T04:47:08.378Z,6.77
2018-09-26T04:48:17.020Z,6.92
2018-09-26T04:49:25.657Z,6.92
2018-09-26T04:50:34.305Z,6.92
2018-09-26T04:51:42.942Z,6.8
2018-09-26T04:52:51.580Z,6.95
2018-09-26T04:54:00.213Z,6.92
2018-09-26T04:55:08.860Z,6.77
2018-09-26T04:56:17.491Z,6.86
2018-09-26T04:57:26.128Z,6.89
2018-09-26T04:58:34.765Z,6.93
2018-09-26T04:59:43.416Z,7.01
2018-09-26T05:00:52.049Z,7.03
2018-09-26T05:02:00.681Z,7.01
2018-09-26T05:03:09.320Z,7
2018-09-26T05:04:17.955Z,7.04
2018-09-26T05:05:26.610Z,7.08
2018-09-26T05:06:35.769Z,7.05
2018-09-26T05:07:44.675Z,7.05
2018-09-26T05:08:53.386Z,7.01
2018-09-26T05:10:01.952Z,7.08
2018-09-26T05:11:10.848Z,7.21
2018-09-26T05:12:19.754Z,7.22
2018-09-26T05:13:28.387Z,7.23
2018-09-26T05:14:37.636Z,7.19
2018-09-26T05:15:46.248Z,7.25
2018-09-26T05:16:54.890Z,7.28
2018-09-26T05:18:03.839Z,7.29
2018-09-26T05:19:12.480Z,7.33
2018-09-26T05:20:21.387Z,7.26
2018-09-26T05:21:30.026Z,7.33
2018-09-26T05:22:38.686Z,7.32
2018-09-26T05:23:47.300Z,7.4
2018-09-26T05:24:55.940Z,7.4
2018-09-26T05:26:04.575Z,7.43
2018-09-26T05:27:13.219Z,7.41
2018-09-26T05:28:22.121Z,7.43
2018-09-26T05:29:30.760Z,7.48
2018-09-26T05:30:39.397Z,7.44
2018-09-26T05:31:48.039Z,7.5
2018-09-26T05:32:56.676Z,7.46
2018-09-26T05:34:05.318Z,7.58
2018-09-26T05:35:14.217Z,7.51
2018-09-26T05:36:23.132Z,7.55
2018-09-26T05:37:31.768Z,7.59
2018-09-26T05:38:40.406Z,7.53
2018-09-26T05:39:49.042Z,7.53
2018-09-26T05:40:57.678Z,7.67
2018-09-26T05:42:06.322Z,7.61
2018-09-26T05:43:15.223Z,7.66
2018-09-26T05:44:23.870Z,7.62
2018-09-26T05:45:32.545Z,7.69
2018-09-26T05:46:41.144Z,7.67
2018-09-26T05:47:49.782Z,7.67
2018-09-26T05:48:58.423Z,7.74
2018-09-26T05:50:07.107Z,7.75
2018-09-26T05:51:15.696Z,7.77
2018-09-26T05:52:24.858Z,7.74
2018-09-26T05:53:33.955Z,7.72
2018-09-26T05:54:42.657Z,7.74
2018-09-26T05:55:51.295Z,7.75
2018-09-26T05:56:59.931Z,7.75
2018-09-26T05:58:08.575Z,7.75
2018-09-26T05:59:17.211Z,7.75
2018-09-26T06:00:25.847Z,7.74
2018-09-26T06:01:34.761Z,7.75
2018-09-26T06:02:43.665Z,7.77
2018-09-26T06:03:52.361Z,7.78
2018-09-26T06:05:00.946Z,7.87
2018-09-26T06:06:09.594Z,7.85
2018-09-26T06:07:18.235Z,7.88
2018-09-26T06:08:26.877Z,7.9
2018-09-26T06:09:35.513Z,7.93
2018-09-26T06:10:44.159Z,8.03
2018-09-26T06:11:52.796Z,8.01
2018-09-26T06:13:01.537Z,8.02
2018-09-26T06:14:10.078Z,8.08
2018-09-26T06:15:18.985Z,8.09
2018-09-26T06:16:27.883Z,8.16
2018-09-26T06:17:36.523Z,8.2
2018-09-26T06:18:45.167Z,8.23
2018-09-26T06:19:54.067Z,8.13
2018-09-26T06:21:02.706Z,8.27
2018-09-26T06:22:11.339Z,8.24
2018-09-26T06:23:19.982Z,8.31
2018-09-26T06:24:28.640Z,8.36
2018-09-26T06:25:37.545Z,8.34
2018-09-26T06:26:46.179Z,8.44
2018-09-26T06:27:54.822Z,8.42
2018-09-26T06:29:03.458Z,8.46
2018-09-26T06:30:12.093Z,8.42
2018-09-26T06:31:20.726Z,8.44
2018-09-26T06:32:29.372Z,8.52
2018-09-26T06:33:38.011Z,8.54
2018-09-26T06:34:46.696Z,8.53
2018-09-26T06:35:55.943Z,8.61
2018-09-26T06:37:04.843Z,8.57
2018-09-26T06:38:13.492Z,8.57
2018-09-26T06:39:22.133Z,8.72
2018-09-26T06:40:30.842Z,8.66
2018-09-26T06:41:39.793Z,8.71
2018-09-26T06:42:48.431Z,8.75
2018-09-26T06:43:57.333Z,8.81
2018-09-26T06:45:05.988Z,8.75
2018-09-26T06:46:14.890Z,8.87
2018-09-26T06:47:23.572Z,8.82
2018-09-26T06:48:32.502Z,8.93
2018-09-26T06:49:41.146Z,8.92
2018-09-26T06:50:50.066Z,8.93
2018-09-26T06:51:58.709Z,8.9
2018-09-26T06:53:07.350Z,8.95
2018-09-26T06:54:15.989Z,8.93
2018-09-26T06:55:24.633Z,8.99
2018-09-26T06:56:33.271Z,9
2018-09-26T06:57:41.913Z,9.16
2018-09-26T06:58:50.550Z,9.03
2018-09-26T06:59:59.456Z,9.11
2018-09-26T07:01:08.103Z,9.13
2018-09-26T07:02:17.003Z,9.12
2018-09-26T07:03:25.637Z,9.18
2018-09-26T07:04:34.555Z,9.21
2018-09-26T07:05:43.192Z,9.24
2018-09-26T07:06:51.839Z,9.24
2018-09-26T07:08:00.732Z,9.33
2018-09-26T07:09:09.373Z,9.34
2018-09-26T07:10:18.012Z,9.26
2018-09-26T07:11:26.654Z,9.31
2018-09-26T07:12:35.298Z,9.42
2018-09-26T07:13:43.932Z,9.44
2018-09-26T07:14:52.571Z,9.44
2018-09-26T07:16:01.212Z,9.45
2018-09-26T07:17:09.854Z,9.47
2018-09-26T07:18:18.490Z,9.51
2018-09-26T07:19:27.401Z,9.59
2018-09-26T07:20:36.038Z,9.63
2018-09-26T07:21:44.692Z,9.63
2018-09-26T07:22:54.594Z,9.69
2018-09-26T07:24:03.734Z,9.66
2018-09-26T07:25:12.709Z,9.74
2018-09-26T07:26:21.358Z,9.74
2018-09-26T07:27:29.994Z,9.82
2018-09-26T07:28:38.630Z,9.76
2018-09-26T07:29:47.273Z,9.87
2018-09-26T07:30:55.912Z,9.84
2018-09-26T07:32:04.557Z,9.84
2018-09-26T07:33:13.480Z,9.88
2018-09-26T07:34:22.119Z,9.88
2018-09-26T07:35:30.749Z,9.9
2018-09-26T07:36:39.406Z,9.91
2018-09-26T07:37:48.310Z,9.91
2018-09-26T07:38:57.217Z,9.97
2018-09-26T07:40:05.849Z,9.99
2018-09-26T07:41:14.499Z,9.94
2018-09-26T07:42:23.134Z,9.99
2018-09-26T07:43:31.777Z,9.97
2018-09-26T07:44:40.408Z,9.95
2018-09-26T07:45:49.338Z,10.03
2018-09-26T07:46:57.961Z,10.06
2018-09-26T07:48:06.878Z,10.1
2018-09-26T07:49:15.522Z,10.1
2018-09-26T07:50:24.152Z,10.2
2018-09-26T07:51:33.060Z,10.17
2018-09-26T07:52:41.695Z,10.27
2018-09-26T07:53:50.346Z,10.34
2018-09-26T07:54:59.257Z,10.3
2018-09-26T07:56:07.908Z,10.36
2018-09-26T07:57:16.801Z,10.42
2018-09-26T07:58:25.454Z,10.38
2018-09-26T07:59:34.350Z,10.51
2018-09-26T08:00:42.998Z,10.49
2018-09-26T08:01:51.635Z,10.65
2018-09-26T08:03:00.281Z,10.57
2018-09-26T08:04:09.179Z,10.61
2018-09-26T08:05:17.821Z,10.68
2018-09-26T08:06:26.459Z,10.71
2018-09-26T08:07:35.100Z,10.77
2018-09-26T08:08:44.271Z,10.72
2018-09-26T08:09:52.911Z,10.8
2018-09-26T08:11:01.555Z,10.82
2018-09-26T08:12:10.460Z,10.95
2018-09-26T08:13:19.107Z,10.9
2018-09-26T08:14:27.747Z,10.97
2018-09-26T08:15:36.649Z,11.05
2018-09-26T08:16:45.293Z,11.04
2018-09-26T08:17:53.922Z,11.04
2018-09-26T08:19:02.566Z,11.05
2018-09-26T08:20:11.202Z,11.13
2018-09-26T08:21:20.126Z,11.1
2018-09-26T08:22:28.763Z,11.19
2018-09-26T08:23:37.715Z,11.22
2018-09-26T08:24:46.329Z,11.22
2018-09-26T08:25:54.965Z,11.23
2018-09-26T08:27:03.615Z,11.31
2018-09-26T08:28:12.712Z,11.27
2018-09-26T08:29:21.624Z,11.31
2018-09-26T08:30:30.253Z,11.3
2018-09-26T08:31:38.909Z,11.41
2018-09-26T08:32:47.541Z,11.37
2018-09-26T08:33:56.187Z,11.45
2018-09-26T08:35:04.821Z,11.49
2018-09-26T08:36:13.470Z,11.45
2018-09-26T08:37:22.108Z,11.53
2018-09-26T08:38:30.754Z,11.53
2018-09-26T08:39:39.648Z,11.59
2018-09-26T08:40:48.291Z,11.62
2018-09-26T08:41:57.207Z,11.7
2018-09-26T08:43:05.854Z,11.67
2018-09-26T08:44:14.495Z,11.71
2018-09-26T08:45:23.126Z,11.8
2018-09-26T08:46:31.772Z,11.83
2018-09-26T08:47:40.406Z,11.85
2018-09-26T08:48:49.319Z,11.89
2018-09-26T08:49:57.952Z,11.95
2018-09-26T08:51:06.869Z,12.1
2018-09-26T08:52:15.505Z,12.21
2018-09-26T08:53:24.152Z,12.17
2018-09-26T08:54:32.791Z,12.18
2018-09-26T08:55:41.433Z,12.25
2018-09-26T08:56:50.074Z,12.25
2018-09-26T08:57:58.725Z,12.26
2018-09-26T08:59:07.363Z,12.4
2018-09-26T09:00:16.007Z,12.35
2018-09-26T09:01:24.912Z,12.48
2018-09-26T09:02:33.810Z,12.54
2018-09-26T09:03:42.464Z,12.53
2018-09-26T09:04:51.102Z,12.57
2018-09-26T09:06:00.023Z,12.5
2018-09-26T09:07:08.656Z,12.53
2018-09-26T09:08:17.305Z,12.58
2018-09-26T09:09:25.944Z,12.58
2018-09-26T09:10:34.856Z,12.61
2018-09-26T09:11:43.586Z,12.69
2018-09-26T09:12:52.150Z,12.69
2018-09-26T09:14:00.795Z,12.76
2018-09-26T09:15:09.707Z,12.73
2018-09-26T09:16:18.343Z,12.8
2018-09-26T09:17:26.988Z,12.8
2018-09-26T09:18:35.633Z,12.83
2018-09-26T09:19:44.278Z,12.84
2018-09-26T09:20:52.919Z,12.83
2018-09-26T09:22:01.559Z,12.88
2018-09-26T09:23:10.467Z,12.94
2018-09-26T09:24:19.384Z,12.99
2018-09-26T09:25:28.035Z,13.01
2018-09-26T09:26:36.675Z,13.16
2018-09-26T09:27:45.814Z,13.21
2018-09-26T09:28:54.612Z,13.2
2018-09-26T09:30:03.260Z,13.21
2018-09-26T09:31:11.898Z,13.27
2018-09-26T09:32:21.007Z,13.33
2018-09-26T09:33:29.805Z,13.37
2018-09-26T09:34:38.451Z,13.37
2018-09-26T09:35:47.090Z,13.37
2018-09-26T09:36:55.734Z,13.36
2018-09-26T09:38:04.401Z,13.37
2018-09-26T09:39:13.038Z,13.36
2018-09-26T09:40:21.684Z,13.31
2018-09-26T09:41:30.327Z,13.33
2018-09-26T09:42:39.235Z,13.31
2018-09-26T09:43:47.873Z,13.45
2018-09-26T09:44:56.524Z,13.4
2018-09-26T09:46:05.167Z,13.37
2018-09-26T09:47:13.808Z,13.45
2018-09-26T09:48:22.446Z,13.52
2018-09-26T09:49:31.094Z,13.55
2018-09-26T09:50:40.003Z,13.64
2018-09-26T09:51:48.648Z,13.58
2018-09-26T09:52:57.575Z,13.62
2018-09-26T09:54:06.221Z,13.64
2018-09-26T09:55:14.861Z,13.78
2018-09-26T09:56:23.561Z,13.7
2018-09-26T09:57:32.492Z,13.67
2018-09-26T09:58:41.143Z,13.67
2018-09-26T09:59:49.785Z,13.73
2018-09-26T10:00:58.699Z,13.76
2018-09-26T10:02:07.637Z,13.76
2018-09-26T10:03:16.246Z,13.79
2018-09-26T10:04:24.886Z,13.78
2018-09-26T10:05:33.527Z,13.91
2018-09-26T10:06:42.175Z,13.95
2018-09-26T10:07:50.872Z,14.13
2018-09-26T10:08:59.738Z,14.07
2018-09-26T10:10:08.378Z,14.15
2018-09-26T10:11:17.086Z,14.12
2018-09-26T10:12:25.729Z,14.11
2018-09-26T10:13:34.396Z,14.11
2018-09-26T10:14:43.033Z,14.16
2018-09-26T10:15:51.674Z,14.13
2018-09-26T10:17:00.329Z,14.15
2018-09-26T10:18:08.965Z,14.19
2018-09-26T10:19:17.613Z,14.22
2018-09-26T10:20:26.350Z,14.25
2018-09-26T10:21:35.564Z,14.25
2018-09-26T10:22:44.202Z,14.22
2018-09-26T10:23:52.849Z,14.22
2018-09-26T10:25:01.572Z,14.26
2018-09-26T10:26:10.184Z,14.28
2018-09-26T10:27:19.188Z,14.22
2018-09-26T10:28:27.836Z,14.3
2018-09-26T10:29:37.005Z,14.31
2018-09-26T10:30:45.652Z,14.36
2018-09-26T10:31:54.564Z,14.45
2018-09-26T10:33:03.478Z,14.45
2018-09-26T10:34:12.123Z,14.43
2018-09-26T10:35:20.766Z,14.61
2018-09-26T10:36:29.413Z,14.58
2018-09-26T10:37:38.052Z,14.62
2018-09-26T10:38:46.704Z,14.68
2018-09-26T10:39:55.338Z,14.66
2018-09-26T10:41:03.980Z,14.74
2018-09-26T10:42:12.888Z,14.74
2018-09-26T10:43:21.544Z,14.81
2018-09-26T10:44:30.459Z,14.87
2018-09-26T10:45:39.105Z,14.9
2018-09-26T10:46:47.781Z,14.92
2018-09-26T10:47:56.398Z,14.79
2018-09-26T10:49:05.038Z,14.79
2018-09-26T10:50:13.712Z,14.77
2018-09-26T10:51:22.319Z,14.77
2018-09-26T10:52:31.226Z,14.71
2018-09-26T10:53:40.143Z,14.73
2018-09-26T10:54:49.042Z,14.77
2018-09-26T10:55:57.691Z,14.74
2018-09-26T10:57:06.326Z,14.73
2018-09-26T10:58:14.975Z,14.73
2018-09-26T10:59:23.617Z,14.85
2018-09-26T11:00:32.261Z,14.85
2018-09-26T11:01:40.895Z,14.87
2018-09-26T11:02:49.545Z,14.86
2018-09-26T11:03:58.186Z,14.79
2018-09-26T11:05:06.834Z,14.89
2018-09-26T11:06:15.732Z,14.89
2018-09-26T11:07:24.378Z,14.96
2018-09-26T11:08:33.038Z,14.94
2018-09-26T11:09:41.933Z,15
2018-09-26T11:10:50.582Z,15.1
2018-09-26T11:11:59.216Z,15.05
2018-09-26T11:13:07.859Z,15.04
2018-09-26T11:14:16.558Z,15.14
2018-09-26T11:15:25.224Z,15.08
2018-09-26T11:16:33.794Z,15.11
2018-09-26T11:17:42.436Z,15.02
2018-09-26T11:18:51.395Z,15.04
2018-09-26T11:20:00.035Z,15.11
2018-09-26T11:21:08.975Z,15.17
2018-09-26T11:22:17.630Z,15.15
2018-09-26T11:23:26.251Z,15.17
2018-09-26T11:24:34.898Z,15.19
2018-09-26T11:25:43.540Z,15.26
2018-09-26T11:26:52.184Z,15.36
2018-09-26T11:28:00.827Z,15.54
2018-09-26T11:29:09.734Z,15.51
2018-09-26T11:30:18.381Z,15.52
2018-09-26T11:31:27.026Z,15.55
2018-09-26T11:32:35.669Z,15.45
2018-09-26T11:33:44.389Z,15.54
2018-09-26T11:34:52.957Z,15.62
2018-09-26T11:36:01.763Z,15.62
2018-09-26T11:37:10.768Z,15.55
2018-09-26T11:38:19.726Z,15.66
2018-09-26T11:39:28.748Z,15.65
2018-09-26T11:40:37.388Z,15.66
2018-09-26T11:41:46.036Z,15.73
2018-09-26T11:42:54.938Z,15.78
2018-09-26T11:44:04.121Z,15.76
2018-09-26T11:45:13.373Z,15.8
2018-09-26T11:46:22.318Z,15.84
2018-09-26T11:47:30.929Z,15.87
2018-09-26T11:48:39.566Z,15.88
2018-09-26T11:49:48.208Z,15.91
2018-09-26T11:50:56.851Z,15.96
2018-09-26T11:52:05.551Z,15.96
2018-09-26T11:53:14.138Z,15.91
2018-09-26T11:54:22.785Z,15.99
2018-09-26T11:55:31.696Z,16
2018-09-26T11:56:40.348Z,15.96
2018-09-26T11:57:49.264Z,16.02
2018-09-26T11:58:57.910Z,16.08
2018-09-26T12:00:06.819Z,16.12
2018-09-26T12:01:15.469Z,16.17
2018-09-26T12:02:24.563Z,16.24
2018-09-26T12:03:33.444Z,16.25
2018-09-26T12:04:42.090Z,16.22
2018-09-26T12:05:51.014Z,16.24
2018-09-26T12:06:59.727Z,16.29
2018-09-26T12:08:08.369Z,16.29
2018-09-26T12:09:17.262Z,16.31
2018-09-26T12:10:26.323Z,16.37
2018-09-26T12:11:34.965Z,16.46
2018-09-26T12:12:43.608Z,16.54
2018-09-26T12:13:52.290Z,16.59
2018-09-26T12:15:01.245Z,16.61
2018-09-26T12:16:09.889Z,16.61
2018-09-26T12:17:18.536Z,16.57
2018-09-26T12:18:27.741Z,16.68
2018-09-26T12:19:36.534Z,16.64
2018-09-26T12:20:45.723Z,16.65
2018-09-26T12:21:54.877Z,16.69
2018-09-26T12:23:03.456Z,16.8
2018-09-26T12:24:12.415Z,16.87
2018-09-26T12:25:21.056Z,16.94
2018-09-26T12:26:29.672Z,16.99
2018-09-26T12:27:38.704Z,16.99
2018-09-26T12:28:47.340Z,16.97
2018-09-26T12:29:55.989Z,16.95
2018-09-26T12:31:04.634Z,16.97
2018-09-26T12:32:13.580Z,17.02
2018-09-26T12:33:22.227Z,17.05
2018-09-26T12:34:30.876Z,17.05
2018-09-26T12:35:39.522Z,17.07
2018-09-26T12:36:48.171Z,17.01
2018-09-26T12:37:57.069Z,17.05
2018-09-26T12:39:05.729Z,17.05
2018-09-26T12:40:14.411Z,17.14
2018-09-26T12:41:23.382Z,17.16
2018-09-26T12:42:32.289Z,17.22
2018-09-26T12:43:40.923Z,17.27
2018-09-26T12:44:49.570Z,17.24
2018-09-26T12:45:58.493Z,17.16
2018-09-26T12:47:07.192Z,17.23
2018-09-26T12:48:16.166Z,17.23
2018-09-26T12:49:25.084Z,17.2
2018-09-26T12:50:33.792Z,17.17
2018-09-26T12:51:42.450Z,17.17
2018-09-26T12:52:51.088Z,17.24
2018-09-26T12:53:59.799Z,17.31
2018-09-26T12:55:08.517Z,17.38
2018-09-26T12:56:17.574Z,17.28
2018-09-26T12:57:26.687Z,17.31
2018-09-26T12:58:35.335Z,17.34
2018-09-26T12:59:43.976Z,17.47
2018-09-26T13:00:52.946Z,17.42
2018-09-26T13:02:01.603Z,17.52
2018-09-26T13:03:10.244Z,17.53
2018-09-26T13:04:18.968Z,17.59
2018-09-26T13:05:27.532Z,17.65
2018-09-26T13:06:36.183Z,17.65
2018-09-26T13:07:44.830Z,17.68
2018-09-26T13:08:53.741Z,17.76
2018-09-26T13:10:02.371Z,17.66
2018-09-26T13:11:11.029Z,17.69
2018-09-26T13:12:19.746Z,17.69
2018-09-26T13:13:28.323Z,17.6
2018-09-26T13:14:36.966Z,17.68
2018-09-26T13:15:45.608Z,17.65
2018-09-26T13:16:54.525Z,17.66
2018-09-26T13:18:03.175Z,17.63
2018-09-26T13:19:12.089Z,17.6
2018-09-26T13:20:20.765Z,17.53
2018-09-26T13:21:29.809Z,17.39
2018-09-26T13:22:38.710Z,17.52
2018-09-26T13:23:47.368Z,17.46
2018-09-26T13:24:56.005Z,17.34
2018-09-26T13:26:04.932Z,17.35
2018-09-26T13:27:13.572Z,17.34
2018-09-26T13:28:22.272Z,17.35
2018-09-26T13:29:30.863Z,17.27
2018-09-26T13:30:39.511Z,17.14
2018-09-26T13:31:48.155Z,17.23
2018-09-26T13:32:56.818Z,17.19
2018-09-26T13:34:05.739Z,17.13
2018-09-26T13:35:14.362Z,17.16
2018-09-26T13:36:23.113Z,17.17
2018-09-26T13:37:31.654Z,17.14
2018-09-26T13:38:40.571Z,17.14
2018-09-26T13:39:49.214Z,17.27
2018-09-26T13:40:57.864Z,17.39
2018-09-26T13:42:06.787Z,17.42
2018-09-26T13:43:15.924Z,17.38
2018-09-26T13:44:24.994Z,17.41
2018-09-26T13:45:33.976Z,17.44
2018-09-26T13:46:42.698Z,17.38
2018-09-26T13:47:51.256Z,17.35
2018-09-26T13:49:00.170Z,17.28
2018-09-26T13:50:08.876Z,17.35
2018-09-26T13:51:17.456Z,17.37
2018-09-26T13:52:26.160Z,17.32
2018-09-26T13:53:34.754Z,17.46
2018-09-26T13:54:43.401Z,17.41
2018-09-26T13:55:52.310Z,17.53
2018-09-26T13:57:01.213Z,17.54
2018-09-26T13:58:10.139Z,17.71
2018-09-26T13:59:18.774Z,17.76
2018-09-26T14:00:27.593Z,17.79
2018-09-26T14:01:36.185Z,17.8
2018-09-26T14:02:44.784Z,17.8
2018-09-26T14:03:53.359Z,17.78
2018-09-26T14:05:02.020Z,17.82
2018-09-26T14:06:10.651Z,17.84
2018-09-26T14:07:19.296Z,17.84
2018-09-26T14:08:28.236Z,17.87
2018-09-26T14:09:36.850Z,17.91
2018-09-26T14:10:45.557Z,17.98
2018-09-26T14:11:54.146Z,17.93
2018-09-26T14:13:02.796Z,17.91
2018-09-26T14:14:11.460Z,17.94
2018-09-26T14:15:20.381Z,18.02
2018-09-26T14:16:29.554Z,18.05
2018-09-26T14:17:38.464Z,17.95
2018-09-26T14:18:47.114Z,17.95
2018-09-26T14:19:55.757Z,17.98
2018-09-26T14:21:04.402Z,18.05
2018-09-26T14:22:13.080Z,17.94
2018-09-26T14:23:21.739Z,18.05
2018-09-26T14:24:30.345Z,18.05
2018-09-26T14:25:38.987Z,18.06
2018-09-26T14:26:47.631Z,18.05
2018-09-26T14:27:56.543Z,17.95
2018-09-26T14:29:05.189Z,17.97
2018-09-26T14:30:14.217Z,17.84
2018-09-26T14:31:22.775Z,17.79
2018-09-26T14:32:31.419Z,17.75
2018-09-26T14:33:40.680Z,17.66
2018-09-26T14:34:49.659Z,17.63
2018-09-26T14:35:58.305Z,17.6
2018-09-26T14:37:06.945Z,17.71
2018-09-26T14:38:15.617Z,17.52
2018-09-26T14:39:24.319Z,17.63
2018-09-26T14:40:33.350Z,17.57
2018-09-26T14:41:42.781Z,17.68
2018-09-26T14:42:51.699Z,17.54
2018-09-26T14:44:00.602Z,17.65
2018-09-26T14:45:09.311Z,17.72
2018-09-26T14:46:17.895Z,17.73
2018-09-26T14:47:26.915Z,17.75
2018-09-26T14:48:35.451Z,17.72
2018-09-26T14:49:44.358Z,17.78
2018-09-26T14:50:53.271Z,17.79
2018-09-26T14:52:01.915Z,17.75
2018-09-26T14:53:10.901Z,17.72
2018-09-26T14:54:19.820Z,17.73
2018-09-26T14:55:28.474Z,17.71
2018-09-26T14:56:37.111Z,17.57
2018-09-26T14:57:45.761Z,17.5
2018-09-26T14:58:54.402Z,17.65
2018-09-26T15:00:03.051Z,17.49
2018-09-26T15:01:11.991Z,17.52
2018-09-26T15:02:20.936Z,17.52
2018-09-26T15:03:29.544Z,17.42